Time;durP1;ratioP1;P1;durP2;ratioP2;P2;SDS_P1;SDS_P2;PMS_P1;PMS_P2;Temp;Humidity;BMP_temperature;BMP_pressure;BME280_temperature;BME280_humidity;BME280_pressure;Samples;Min_cycle;Max_cycle;Signal;HPM_P1;HPM_P2
2022/03/30 00:01:38;;;;;;;8.27;6.47;;;11.10;57.40;;;;;;5090514;28;20221;-70
2022/03/30 00:04:06;;;;;;;10.13;5.57;;;10.90;42.10;;;;;;5091060;28;20201;-70
2022/03/30 00:06:34;;;;;;;9.10;5.70;;;10.90;56.70;;;;;;5090496;28;20699;-69
2022/03/30 00:09:01;;;;;;;13.07;6.70;;;10.90;59.40;;;;;;5090821;28;20209;-71
2022/03/30 00:11:28;;;;;;;15.03;7.87;;;11.00;51.90;;;;;;5091217;28;20197;-70
2022/03/30 00:13:56;;;;;;;11.87;6.37;;;10.90;56.10;;;;;;5090664;28;20609;-68
2022/03/30 00:16:24;;;;;;;11.10;6.23;;;10.80;43.20;;;;;;5090769;28;20201;-69
2022/03/30 00:18:52;;;;;;;10.57;6.53;;;10.90;46.50;;;;;;5090372;28;20197;-69
2022/03/30 00:21:19;;;;;;;10.77;5.37;;;11.10;70.80;;;;;;5090797;28;20202;-71
2022/03/30 00:23:47;;;;;;;9.60;6.40;;;10.90;49.60;;;;;;5090553;28;20274;-70
2022/03/30 00:26:14;;;;;;;9.00;7.60;;;10.90;54.50;;;;;;5090849;28;20201;-69
2022/03/30 00:28:41;;;;;;;8.83;5.50;;;11.00;43.30;;;;;;5090240;28;20217;-68
2022/03/30 00:31:08;;;;;;;12.60;6.50;;;10.90;26.40;;;;;;5090621;28;20205;-69
2022/03/30 00:33:35;;;;;;;7.50;6.03;;;11.00;28.20;;;;;;5090429;28;20233;-69
2022/03/30 00:36:02;;;;;;;8.83;6.10;;;11.00;27.30;;;;;;5090564;28;20274;-70
2022/03/30 00:38:29;;;;;;;9.90;6.27;;;11.00;39.70;;;;;;5091009;28;20202;-69
2022/03/30 00:40:58;;;;;;;10.33;6.27;;;11.00;25.40;;;;;;5090598;28;20611;-69
2022/03/30 00:43:25;;;;;;;9.80;5.23;;;11.00;26.40;;;;;;5090459;28;20308;-69
2022/03/30 00:45:52;;;;;;;6.60;5.23;;;10.90;26.80;;;;;;5090400;28;20202;-69
2022/03/30 00:48:19;;;;;;;12.63;6.77;;;11.00;25.10;;;;;;5090640;28;20251;-70
2022/03/30 00:50:46;;;;;;;10.90;6.17;;;11.00;18.50;;;;;;5089948;28;20210;-69
2022/03/30 00:53:13;;;;;;;8.83;6.13;;;11.20;29.70;;;;;;5090495;28;20230;-70
2022/03/30 00:55:40;;;;;;;10.27;5.97;;;11.10;21.10;;;;;;5089884;28;20206;-70
2022/03/30 00:58:10;;;;;;;11.13;6.90;;;11.00;23.50;;;;;;5090355;28;20730;-69
2022/03/30 01:00:37;;;;;;;11.30;6.20;;;11.10;27.70;;;;;;5090272;28;20227;-68
2022/03/30 01:03:04;;;;;;;8.97;5.63;;;11.20;22.10;;;;;;5090278;28;20263;-68
2022/03/30 01:05:31;;;;;;;8.47;5.43;;;11.10;5.80;;;;;;5090346;28;20254;-68
2022/03/30 01:07:59;;;;;;;9.33;6.63;;;11.10;23.10;;;;;;5090232;28;20201;-67
2022/03/30 01:10:26;;;;;;;8.03;6.23;;;11.30;23.60;;;;;;5090602;28;20224;-66
2022/03/30 01:12:54;;;;;;;11.33;6.83;;;11.30;18.70;;;;;;5090034;28;20233;-67
2022/03/30 01:15:23;;;;;;;8.07;6.07;;;11.20;8.20;;;;;;5090266;28;20758;-67
2022/03/30 01:17:50;;;;;;;12.50;7.03;;;11.00;1.90;;;;;;5092918;28;20724;-67
2022/03/30 01:20:21;;;;;;;9.47;5.83;;;11.00;9.20;;;;;;5093797;28;20197;-68
2022/03/30 01:22:49;;;;;;;9.97;5.43;;;11.00;6.90;;;;;;5093451;28;20228;-68
2022/03/30 01:25:17;;;;;;;10.67;7.27;;;11.00;18.30;;;;;;5093745;28;20593;-69
2022/03/30 01:27:44;;;;;;;13.13;7.27;;;11.30;26.20;;;;;;5093335;28;20708;-68
2022/03/30 01:32:59;;;;;;;8.10;5.97;;;11.20;1.00;;;;;;5093522;28;20227;-71
2022/03/30 01:35:26;;;;;;;11.47;5.97;;;11.20;9.90;;;;;;5093804;28;20206;-68
2022/03/30 01:37:55;;;;;;;14.33;6.90;;;11.20;3.90;;;;;;5093138;28;20205;-69
2022/03/30 01:40:22;;;;;;;10.87;6.33;;;11.30;8.30;;;;;;5093467;28;20255;-71
2022/03/30 01:42:49;;;;;;;13.17;6.27;;;11.20;1.00;;;;;;5092916;28;20550;-69
2022/03/30 01:45:17;;;;;;;7.43;5.57;;;11.10;1.00;;;;;;5093429;28;20247;-70
2022/03/30 01:47:52;;;;;;;9.37;6.33;;;11.10;1.00;;;;;;5092760;28;20749;-71
2022/03/30 01:50:19;;;;;;;17.43;8.10;;;11.00;3.60;;;;;;5093265;28;20742;-69
2022/03/30 01:52:47;;;;;;;9.53;5.50;;;11.10;1.00;;;;;;5092773;28;20713;-68
2022/03/30 01:55:16;;;;;;;13.20;6.60;;;11.10;1.60;;;;;;5093258;28;20202;-69
2022/03/30 01:57:43;;;;;;;9.10;6.23;;;11.10;1.00;;;;;;5092848;28;20258;-68
2022/03/30 02:00:12;;;;;;;9.23;6.10;;;11.20;13.60;;;;;;5093235;28;20201;-70
2022/03/30 02:02:39;;;;;;;12.63;7.27;;;11.10;1.00;;;;;;5092403;28;20206;-68
2022/03/30 02:05:08;;;;;;;10.77;7.13;;;11.20;7.60;;;;;;5093002;28;20608;-68
2022/03/30 02:07:36;;;;;;;6.97;6.20;;;11.30;6.40;;;;;;5092563;28;20617;-68
2022/03/30 02:10:06;;;;;;;7.60;5.60;;;11.40;4.40;;;;;;5092833;28;20216;-68
2022/03/30 02:12:34;;;;;;;10.67;6.33;;;11.40;1.00;;;;;;5092676;28;20282;-68
2022/03/30 02:15:01;;;;;;;8.87;5.90;;;11.50;7.20;;;;;;5092762;28;20259;-69
2022/03/30 02:17:29;;;;;;;11.23;5.43;;;11.40;1.00;;;;;;5092854;28;20209;-68
2022/03/30 02:19:56;;;;;;;9.77;6.40;;;11.40;1.00;;;;;;5092712;28;20233;-68
2022/03/30 02:22:24;;;;;;;10.10;5.97;;;11.40;1.00;;;;;;5092749;28;20201;-67
2022/03/30 02:24:51;;;;;;;12.80;6.73;;;11.50;1.00;;;;;;5092391;28;20243;-68
2022/03/30 02:27:19;;;;;;;17.43;6.30;;;11.50;1.00;;;;;;5092628;28;20304;-69
2022/03/30 02:29:49;;;;;;;7.80;6.00;;;11.40;1.00;;;;;;5092134;28;20292;-68
2022/03/30 02:32:16;;;;;;;14.70;5.93;;;11.40;1.00;;;;;;5092564;28;20204;-68
2022/03/30 02:34:43;;;;;;;11.57;6.27;;;11.40;1.00;;;;;;5092104;28;20205;-68
2022/03/30 02:37:11;;;;;;;8.17;5.73;;;11.40;1.00;;;;;;5092410;28;20249;-67
2022/03/30 02:39:38;;;;;;;9.93;5.53;;;11.30;1.00;;;;;;5092018;28;20201;-68
2022/03/30 02:42:06;;;;;;;12.40;6.53;;;11.10;1.00;;;;;;5092245;28;20205;-68
2022/03/30 02:44:34;;;;;;;10.27;5.33;;;11.20;1.00;;;;;;5091335;28;20216;-67
2022/03/30 02:47:03;;;;;;;9.87;5.70;;;11.00;1.00;;;;;;5092258;28;20259;-68
2022/03/30 02:49:30;;;;;;;9.30;6.43;;;11.10;1.00;;;;;;5092470;28;20232;-68
2022/03/30 02:51:57;;;;;;;8.50;5.60;;;11.10;1.00;;;;;;5080530;28;20210;-68
2022/03/30 02:54:25;;;;;;;13.27;5.60;;;11.10;1.00;;;;;;5071660;28;20234;-68
2022/03/30 02:56:52;;;;;;;11.17;6.13;;;11.20;1.00;;;;;;5071440;28;20206;-67
2022/03/30 02:59:19;;;;;;;10.33;5.73;;;11.20;1.00;;;;;;5071551;28;20658;-69
2022/03/30 03:01:47;;;;;;;7.73;5.00;;;11.30;1.00;;;;;;5071616;28;20206;-67
2022/03/30 03:04:15;;;;;;;6.43;5.83;;;11.20;1.00;;;;;;5071723;28;20209;-70
2022/03/30 03:06:42;;;;;;;9.57;5.77;;;11.20;1.00;;;;;;5071092;28;20260;-69
2022/03/30 03:09:09;;;;;;;8.07;5.67;;;11.30;1.00;;;;;;5071441;28;20214;-68
2022/03/30 03:11:36;;;;;;;8.03;5.27;;;11.30;1.00;;;;;;5071058;28;20203;-68
2022/03/30 03:14:06;;;;;;;12.43;7.30;;;11.20;1.00;;;;;;5071353;28;20236;-69
2022/03/30 03:16:34;;;;;;;9.63;5.37;;;11.20;1.00;;;;;;5071185;28;20735;-67
2022/03/30 03:19:01;;;;;;;11.80;6.97;;;11.30;1.00;;;;;;5071275;28;20322;-69
2022/03/30 03:21:30;;;;;;;14.87;6.50;;;11.20;1.00;;;;;;5071691;28;20263;-67
2022/03/30 03:23:57;;;;;;;9.67;6.60;;;11.30;1.00;;;;;;5071192;28;20662;-69
2022/03/30 03:26:24;;;;;;;17.67;7.20;;;11.20;1.00;;;;;;5071179;28;20228;-68
2022/03/30 03:28:50;;;;;;;10.50;6.03;;;11.30;1.00;;;;;;5070623;28;20739;-67
2022/03/30 03:31:18;;;;;;;15.43;8.87;;;11.30;1.00;;;;;;5071016;28;20639;-67
2022/03/30 03:33:45;;;;;;;9.20;5.47;;;11.20;1.00;;;;;;5070746;28;20294;-69
2022/03/30 03:36:12;;;;;;;10.03;5.63;;;11.30;1.00;;;;;;5071148;28;20209;-68
2022/03/30 03:38:40;;;;;;;10.23;5.70;;;11.30;1.00;;;;;;5070635;28;20545;-69
2022/03/30 03:41:07;;;;;;;9.00;6.07;;;11.30;1.00;;;;;;5070986;28;20256;-69
2022/03/30 03:43:34;;;;;;;10.47;7.30;;;11.20;7.80;;;;;;5070427;28;20210;-69
2022/03/30 03:46:01;;;;;;;8.90;6.07;;;11.10;15.10;;;;;;5071075;28;20206;-70
2022/03/30 03:48:28;;;;;;;10.13;6.33;;;11.10;22.50;;;;;;5071303;28;20662;-68
2022/03/30 03:50:55;;;;;;;10.43;7.30;;;11.10;26.90;;;;;;5070826;28;20256;-68
2022/03/30 03:53:22;;;;;;;10.13;6.87;;;11.10;21.50;;;;;;5071089;28;20321;-69
2022/03/30 03:55:51;;;;;;;12.23;6.00;;;11.20;19.90;;;;;;5070445;28;20657;-70
2022/03/30 03:58:18;;;;;;;8.57;6.17;;;11.20;25.20;;;;;;5070656;28;20248;-69
2022/03/30 04:00:45;;;;;;;8.73;6.53;;;11.30;25.80;;;;;;5070415;28;20252;-67
2022/03/30 04:03:12;;;;;;;11.27;7.60;;;11.30;23.30;;;;;;5070843;28;20208;-68
2022/03/30 04:05:40;;;;;;;12.33;6.37;;;11.30;18.10;;;;;;5070358;28;20206;-69
2022/03/30 04:08:07;;;;;;;10.10;7.53;;;11.30;10.50;;;;;;5070663;28;20198;-67
2022/03/30 04:10:34;;;;;;;7.73;5.93;;;11.30;12.40;;;;;;5070382;28;20252;-67
2022/03/30 04:13:04;;;;;;;13.50;6.67;;;11.30;5.50;;;;;;5070580;28;20202;-68
2022/03/30 04:15:31;;;;;;;10.83;6.10;;;11.30;1.00;;;;;;5088738;28;20201;-67
2022/03/30 04:17:58;;;;;;;10.20;7.10;;;11.30;1.00;;;;;;5070939;28;20202;-67
2022/03/30 04:20:26;;;;;;;7.07;6.33;;;11.30;1.00;;;;;;5078239;28;20578;-68
2022/03/30 04:22:52;;;;;;;11.60;7.93;;;11.20;1.00;;;;;;5090094;28;20569;-67
2022/03/30 04:25:19;;;;;;;14.13;6.83;;;11.30;2.40;;;;;;5090410;28;20631;-68
2022/03/30 04:27:47;;;;;;;13.67;7.40;;;11.30;1.00;;;;;;5089880;28;20209;-67
2022/03/30 04:30:16;;;;;;;13.93;6.53;;;11.30;1.00;;;;;;5090572;28;20213;-69
2022/03/30 04:32:44;;;;;;;11.83;7.77;;;11.30;1.00;;;;;;5081346;28;20206;-68
2022/03/30 04:35:12;;;;;;;13.50;7.97;;;11.30;6.30;;;;;;5086714;28;20268;-67
2022/03/30 04:37:40;;;;;;;8.50;6.93;;;11.30;3.40;;;;;;5090008;28;20212;-67
2022/03/30 04:40:08;;;;;;;13.70;7.20;;;11.30;11.30;;;;;;5090324;28;20235;-69
2022/03/30 04:42:35;;;;;;;9.63;6.07;;;11.30;6.90;;;;;;5089776;28;20201;-68
2022/03/30 04:45:02;;;;;;;12.37;6.70;;;11.30;17.70;;;;;;5090111;28;20259;-68
2022/03/30 04:47:32;;;;;;;11.10;7.10;;;11.20;3.60;;;;;;5090905;28;20206;-69
2022/03/30 04:49:59;;;;;;;9.33;6.87;;;11.20;7.10;;;;;;5090437;28;20586;-68
2022/03/30 04:52:26;;;;;;;11.57;7.17;;;11.20;20.50;;;;;;5093636;28;20304;-68
2022/03/30 04:54:53;;;;;;;10.43;8.73;;;11.30;9.50;;;;;;5093555;28;20708;-69
2022/03/30 04:57:21;;;;;;;12.07;6.43;;;11.30;1.00;;;;;;5093684;28;20689;-69
2022/03/30 04:59:48;;;;;;;10.27;5.57;;;11.30;1.00;;;;;;5094005;28;20292;-68
2022/03/30 05:02:15;;;;;;;6.27;5.67;;;11.30;2.90;;;;;;5094034;28;20262;-69
2022/03/30 05:04:43;;;;;;;10.60;6.67;;;11.30;1.00;;;;;;5093511;28;20279;-71
2022/03/30 05:07:10;;;;;;;12.30;6.70;;;11.20;1.00;;;;;;5093663;28;20262;-69
2022/03/30 05:09:37;;;;;;;11.73;6.80;;;11.20;1.00;;;;;;5081338;28;20267;-68
2022/03/30 05:12:05;;;;;;;10.60;6.77;;;11.30;1.00;;;;;;5092118;28;20692;-71
2022/03/30 05:14:32;;;;;;;18.77;6.83;;;11.20;10.10;;;;;;5093763;28;20233;-68
2022/03/30 05:16:59;;;;;;;11.30;6.60;;;11.20;5.20;;;;;;5093848;28;20720;-68
2022/03/30 05:19:26;;;;;;;10.97;6.20;;;11.20;1.00;;;;;;5094244;28;20209;-68
2022/03/30 05:21:55;;;;;;;13.07;6.30;;;11.20;1.00;;;;;;5093129;28;20209;-68
2022/03/30 05:24:22;;;;;;;15.80;6.97;;;11.10;1.00;;;;;;5093587;28;20270;-68
2022/03/30 05:26:50;;;;;;;9.80;5.87;;;11.00;1.00;;;;;;5092952;28;20197;-68
2022/03/30 05:29:17;;;;;;;18.27;7.53;;;11.00;1.00;;;;;;5093512;28;20209;-68
2022/03/30 05:31:45;;;;;;;14.40;6.17;;;11.10;1.00;;;;;;5093128;28;20206;-68
2022/03/30 05:34:12;;;;;;;9.80;7.00;;;11.10;1.00;;;;;;5093453;28;20314;-68
2022/03/30 05:36:39;;;;;;;8.77;5.30;;;10.90;1.00;;;;;;5092799;28;20586;-68
2022/03/30 05:39:07;;;;;;;11.43;6.17;;;11.00;1.00;;;;;;5092849;28;20630;-67
2022/03/30 05:41:34;;;;;;;8.90;5.47;;;11.00;1.00;;;;;;5092783;28;20206;-69
2022/03/30 05:44:02;;;;;;;11.00;6.10;;;11.10;1.00;;;;;;5093358;28;20217;-69
2022/03/30 05:46:30;;;;;;;14.40;6.10;;;11.10;1.00;;;;;;5093603;28;20213;-67
2022/03/30 05:48:57;;;;;;;10.40;5.77;;;11.10;1.00;;;;;;5093043;28;20250;-67
2022/03/30 05:51:24;;;;;;;12.37;6.03;;;11.10;1.00;;;;;;5093234;28;20216;-69
2022/03/30 05:53:51;;;;;;;12.43;5.70;;;11.10;1.00;;;;;;5092142;28;20243;-68
2022/03/30 05:56:59;;;;;;;11.00;5.83;;;11.10;1.00;;;;;;5092851;28;20726;-68
2022/03/30 05:59:06;;;;;;;13.17;6.87;;;11.00;1.00;;;;;;5092801;28;20251;-68
2022/03/30 06:01:34;;;;;;;13.77;5.93;;;11.10;1.00;;;;;;5092063;28;20693;-68
2022/03/30 06:04:01;;;;;;;13.20;6.70;;;11.10;1.00;;;;;;5092184;28;20209;-68
2022/03/30 06:06:28;;;;;;;10.93;5.07;;;11.10;1.00;;;;;;5090079;28;20210;-68
2022/03/30 06:08:55;;;;;;;10.27;6.07;;;11.10;1.00;;;;;;5092127;28;20286;-68
2022/03/30 06:11:23;;;;;;;14.00;6.37;;;11.10;1.00;;;;;;5078596;28;20210;-68
2022/03/30 06:13:50;;;;;;;11.67;5.87;;;11.10;1.00;;;;;;5092393;28;20230;-68
2022/03/30 06:16:17;;;;;;;10.20;6.57;;;11.10;1.00;;;;;;5092736;28;20263;-67
2022/03/30 06:18:44;;;;;;;12.17;6.70;;;11.10;1.00;;;;;;5091838;28;20719;-70
2022/03/30 06:21:12;;;;;;;10.13;6.23;;;11.20;1.00;;;;;;5092080;28;20613;-68
2022/03/30 06:23:39;;;;;;;12.83;5.60;;;11.20;1.00;;;;;;5092248;28;20206;-68
2022/03/30 06:26:06;;;;;;;11.23;6.20;;;11.50;1.00;;;;;;5092806;28;20209;-66
2022/03/30 06:28:34;;;;;;;15.97;6.77;;;11.40;1.00;;;;;;5092369;28;20288;-66
2022/03/30 06:31:01;;;;;;;11.73;5.87;;;11.30;1.00;;;;;;5092609;28;20205;-67
2022/03/30 06:33:29;;;;;;;9.90;7.10;;;11.20;1.00;;;;;;5092602;28;20205;-68
2022/03/30 06:35:56;;;;;;;12.47;6.03;;;11.20;1.00;;;;;;5092354;28;20237;-69
2022/03/30 06:38:23;;;;;;;10.90;5.97;;;11.20;1.00;;;;;;5092232;28;20228;-70
2022/03/30 06:40:50;;;;;;;9.30;6.10;;;11.10;1.00;;;;;;5092042;28;20209;-67
2022/03/30 06:43:20;;;;;;;9.37;6.40;;;11.30;1.00;;;;;;5092429;28;20668;-68
2022/03/30 06:45:49;;;;;;;9.67;6.23;;;11.30;1.00;;;;;;5091908;28;20197;-72
2022/03/30 06:48:16;;;;;;;9.43;6.00;;;11.30;1.00;;;;;;5092480;28;20254;-67
2022/03/30 06:50:43;;;;;;;11.03;5.90;;;11.30;1.00;;;;;;5081491;28;20206;-69
2022/03/30 06:53:10;;;;;;;8.80;5.50;;;11.30;1.00;;;;;;5080546;28;20208;-74
2022/03/30 06:55:38;;;;;;;11.53;6.23;;;11.30;1.00;;;;;;5086606;28;20287;-68
2022/03/30 06:58:06;;;;;;;10.00;6.70;;;11.20;1.00;;;;;;5078094;28;20654;-69
2022/03/30 07:00:33;;;;;;;12.30;6.13;;;11.10;1.00;;;;;;5091361;28;20209;-67
2022/03/30 07:03:02;;;;;;;11.03;5.97;;;11.20;1.00;;;;;;5091956;28;20202;-67
2022/03/30 07:05:29;;;;;;;9.07;5.50;;;11.20;1.00;;;;;;5092092;28;20210;-71
2022/03/30 07:10:40;;;;;;;9.67;6.33;;;11.20;1.00;;;;;;5091136;28;20224;-69
2022/03/30 07:13:07;;;;;;;8.60;5.47;;;11.30;1.00;;;;;;5089123;28;20205;-69
2022/03/30 07:15:34;;;;;;;13.83;5.83;;;11.30;1.00;;;;;;5087556;28;20238;-71
2022/03/30 07:18:02;;;;;;;8.10;6.03;;;11.30;1.00;;;;;;5086782;28;20634;-68
2022/03/30 07:20:31;;;;;;;10.23;6.70;;;11.30;1.00;;;;;;5091615;28;20201;-69
2022/03/30 07:22:59;;;;;;;16.07;7.40;;;11.30;1.00;;;;;;5080809;28;20288;-69
2022/03/30 07:25:26;;;;;;;8.40;6.77;;;11.30;1.00;;;;;;5091426;28;20213;-69
2022/03/30 07:27:55;;;;;;;11.00;6.70;;;11.30;1.00;;;;;;5090966;28;20255;-68
2022/03/30 07:30:24;;;;;;;11.13;7.07;;;11.40;1.00;;;;;;5091146;28;20263;-69
2022/03/30 07:32:52;;;;;;;10.70;6.13;;;11.30;1.00;;;;;;5079204;28;20636;-68
2022/03/30 07:35:22;;;;;;;11.33;5.83;;;11.30;1.00;;;;;;5090291;28;20647;-67
2022/03/30 07:37:50;;;;;;;10.03;6.47;;;11.30;1.00;;;;;;5079250;28;20209;-69
2022/03/30 07:40:19;;;;;;;9.60;6.90;;;11.30;1.00;;;;;;5079338;28;20665;-68
2022/03/30 07:42:47;;;;;;;13.97;7.63;;;11.30;1.00;;;;;;5082584;28;20217;-67
2022/03/30 07:45:14;;;;;;;14.63;6.80;;;11.40;1.00;;;;;;5076099;28;20230;-68
2022/03/30 07:47:41;;;;;;;10.47;8.00;;;11.40;1.00;;;;;;5079619;28;20255;-69
2022/03/30 07:50:10;;;;;;;11.10;7.20;;;11.50;1.00;;;;;;5084331;28;20205;-68
2022/03/30 07:52:39;;;;;;;11.10;6.80;;;11.50;1.00;;;;;;5083287;28;20201;-68
2022/03/30 07:55:08;;;;;;;11.87;6.73;;;11.50;1.00;;;;;;5080287;28;20229;-68
2022/03/30 07:57:37;;;;;;;8.93;6.87;;;11.40;1.00;;;;;;5079754;28;20210;-68
2022/03/30 08:00:07;;;;;;;12.20;6.80;;;11.20;1.00;;;;;;5078372;28;20597;-69
2022/03/30 08:02:35;;;;;;;10.70;6.93;;;11.10;1.00;;;;;;5078749;28;20214;-67
2022/03/30 08:05:02;;;;;;;12.63;6.57;;;11.30;1.00;;;;;;5083738;28;20205;-69
2022/03/30 08:07:30;;;;;;;12.40;7.13;;;11.30;1.00;;;;;;5086015;28;20212;-69
2022/03/30 08:09:59;;;;;;;14.57;7.03;;;11.40;1.00;;;;;;5085700;28;20224;-69
2022/03/30 08:12:26;;;;;;;10.00;6.33;;;11.40;1.00;;;;;;5091211;28;20604;-69
2022/03/30 08:14:54;;;;;;;10.90;7.10;;;11.50;1.00;;;;;;5090475;28;20229;-70
2022/03/30 08:17:21;;;;;;;12.23;7.90;;;11.50;1.00;;;;;;5090900;28;20209;-70
2022/03/30 08:19:48;;;;;;;18.13;8.37;;;11.60;1.00;;;;;;5090251;28;20754;-70
2022/03/30 08:22:27;;;;;;;13.37;7.97;;;11.40;1.00;;;;;;5091037;28;20202;-71
2022/03/30 08:24:54;;;;;;;14.93;7.10;;;11.50;1.00;;;;;;5090901;28;20213;-71
2022/03/30 08:27:24;;;;;;;10.23;6.00;;;11.40;1.00;;;;;;5094971;28;20201;-71
2022/03/30 08:29:52;;;;;;;12.23;7.20;;;11.60;1.00;;;;;;5094640;28;20209;-70
2022/03/30 08:32:21;;;;;;;15.13;6.93;;;11.70;1.00;;;;;;5094835;28;20748;-71
2022/03/30 08:34:48;;;;;;;12.07;7.67;;;11.90;1.00;;;;;;5085652;28;20231;-69
2022/03/30 08:37:15;;;;;;;10.43;6.83;;;11.90;1.00;;;;;;5092947;28;20205;-70
2022/03/30 08:39:43;;;;;;;12.90;7.23;;;11.90;1.00;;;;;;5093740;28;20197;-70
2022/03/30 08:42:15;;;;;;;14.40;6.50;;;11.90;1.00;;;;;;5081574;28;20206;-70
2022/03/30 08:44:46;;;;;;;15.70;8.43;;;11.90;1.00;;;;;;5087829;28;20703;-70
2022/03/30 08:47:14;;;;;;;9.60;7.27;;;11.90;1.00;;;;;;5087085;28;20204;-70
2022/03/30 08:49:42;;;;;;;10.07;6.83;;;11.90;1.00;;;;;;5089934;28;20205;-69
2022/03/30 08:52:10;;;;;;;12.87;6.77;;;12.00;1.00;;;;;;5081055;28;20236;-69
2022/03/30 08:54:38;;;;;;;12.70;6.40;;;12.00;1.00;;;;;;5089038;28;20318;-69
2022/03/30 08:57:05;;;;;;;9.30;7.33;;;12.00;8.20;;;;;;5093571;28;20214;-69
2022/03/30 08:59:32;;;;;;;12.97;6.83;;;12.10;1.00;;;;;;5089976;28;20328;-69
2022/03/30 09:02:01;;;;;;;11.60;7.40;;;12.20;1.00;;;;;;5081970;28;20210;-69
2022/03/30 09:04:28;;;;;;;12.53;7.50;;;12.10;1.00;;;;;;5084139;28;20205;-69
2022/03/30 09:06:56;;;;;;;9.60;7.70;;;12.00;1.00;;;;;;5093665;28;20578;-70
2022/03/30 09:09:32;;;;;;;14.23;7.50;;;11.90;1.00;;;;;;5093726;28;20213;-70
2022/03/30 09:12:00;;;;;;;9.38;7.50;;;12.10;1.00;;;;;;5093848;28;20274;-69
2022/03/30 09:14:29;;;;;;;9.47;7.07;;;12.20;1.00;;;;;;5094160;28;20213;-69
2022/03/30 09:16:58;;;;;;;10.97;7.97;;;12.10;1.00;;;;;;5079267;28;20201;-70
2022/03/30 09:19:28;;;;;;;8.73;7.67;;;12.10;1.00;;;;;;5094092;28;20220;-70
2022/03/30 09:21:57;;;;;;;11.80;8.17;;;12.20;1.00;;;;;;5093047;28;20282;-69
2022/03/30 09:24:26;;;;;;;12.63;8.53;;;12.30;1.00;;;;;;5090471;28;20240;-69
2022/03/30 09:26:55;;;;;;;14.27;8.13;;;12.30;1.00;;;;;;5091872;28;20213;-69
2022/03/30 09:29:24;;;;;;;14.10;8.43;;;12.30;1.00;;;;;;5088893;28;20206;-68
2022/03/30 09:31:52;;;;;;;14.20;8.87;;;12.30;1.00;;;;;;5085862;28;20282;-69
2022/03/30 09:34:20;;;;;;;14.07;7.63;;;12.50;1.00;;;;;;5092679;28;20665;-68
2022/03/30 09:36:52;;;;;;;12.88;8.88;;;12.40;1.00;;;;;;5092226;28;20233;-68
2022/03/30 09:39:30;;;;;;;16.17;9.23;;;12.40;1.00;;;;;;5090527;28;20284;-70
2022/03/30 09:41:59;;;;;;;13.63;8.07;;;12.50;1.00;;;;;;5084355;28;20742;-72
2022/03/30 09:44:27;;;;;;;11.55;7.68;;;12.50;1.00;;;;;;5080035;28;20210;-69
2022/03/30 09:46:56;;;;;;;10.23;7.77;;;12.40;1.00;;;;;;5088260;28;20284;-70
2022/03/30 09:49:48;;;;;;;14.70;8.13;;;12.40;1.00;;;;;;5083027;28;20253;-68
2022/03/30 09:52:18;;;;;;;22.15;10.18;;;12.30;1.00;;;;;;5076969;28;20255;-69
2022/03/30 09:54:49;;;;;;;11.05;8.73;;;12.30;1.00;;;;;;5086764;28;20314;-69
2022/03/30 09:57:19;;;;;;;12.07;8.50;;;12.30;1.00;;;;;;5077844;28;20289;-69
2022/03/30 09:59:57;;;;;;;15.32;8.48;;;12.30;1.00;;;;;;5085709;28;20198;-68
2022/03/30 10:02:24;;;;;;;16.00;9.50;;;12.30;1.00;;;;;;5083910;28;20208;-68
2022/03/30 10:04:51;;;;;;;15.18;8.57;;;12.10;1.00;;;;;;5090252;28;20237;-68
2022/03/30 10:07:23;;;;;;;14.57;8.63;;;12.10;1.00;;;;;;5088494;28;20198;-70
2022/03/30 10:09:52;;;;;;;13.63;8.40;;;12.10;7.10;;;;;;5090169;28;20220;-68
2022/03/30 10:12:19;;;;;;;14.10;10.70;;;11.90;1.00;;;;;;5079468;28;20206;-69
2022/03/30 10:14:48;;;;;;;12.20;9.10;;;11.90;1.00;;;;;;5081393;28;20233;-70
2022/03/30 10:17:15;;;;;;;11.37;8.70;;;11.80;2.70;;;;;;5084088;28;20672;-72
2022/03/30 10:19:44;;;;;;;17.60;8.17;;;11.90;27.20;;;;;;5091281;28;20738;-72
2022/03/30 10:22:27;;;;;;;14.55;9.98;;;11.90;6.40;;;;;;5091742;28;20286;-72
2022/03/30 10:25:06;;;;;;;23.63;9.20;;;11.70;1.00;;;;;;5090299;28;20213;-72
2022/03/30 10:27:40;;;;;;;16.20;9.57;;;11.40;4.20;;;;;;5077913;28;20202;-71
2022/03/30 10:30:09;;;;;;;19.10;9.23;;;11.30;1.00;;;;;;5082668;28;20197;-72
2022/03/30 10:32:37;;;;;;;16.03;10.77;;;11.30;1.30;;;;;;5087526;28;20207;-69
2022/03/30 10:35:07;;;;;;;13.37;8.83;;;11.20;11.00;;;;;;5077654;28;20259;-69
2022/03/30 10:37:38;;;;;;;13.97;9.57;;;11.20;18.50;;;;;;5092071;28;20206;-69
2022/03/30 10:40:16;;;;;;;15.07;8.13;;;11.10;21.80;;;;;;5089075;28;20674;-69
2022/03/30 10:42:58;;;;;;;16.63;10.23;;;11.10;27.20;;;;;;5071907;28;20201;-69
2022/03/30 10:45:27;;;;;;;13.17;9.03;;;11.10;30.00;;;;;;5071957;28;20210;-69
2022/03/30 10:48:11;;;;;;;15.17;9.20;;;11.10;42.60;;;;;;5080909;28;20205;-69
2022/03/30 10:50:41;;;;;;;21.93;12.57;;;11.20;27.30;;;;;;5069909;28;20267;-68
2022/03/30 10:53:42;;;;;;;14.20;10.57;;;11.40;23.30;;;;;;5079489;28;20201;-68
2022/03/30 10:56:30;;;;;;;19.27;9.60;;;11.40;20.30;;;;;;5086762;28;20700;-68
2022/03/30 10:59:16;;;;;;;14.77;9.20;;;11.40;3.50;;;;;;5077076;28;20224;-69
2022/03/30 11:01:44;;;;;;;16.43;10.53;;;11.40;7.40;;;;;;5077075;28;20265;-69
2022/03/30 11:04:28;;;;;;;27.33;11.83;;;11.40;5.00;;;;;;5078696;28;20214;-69
2022/03/30 11:07:34;;;;;;;16.17;10.75;;;11.30;6.60;;;;;;5082395;28;20432;-70
2022/03/30 11:10:29;;;;;;;16.23;10.17;;;11.20;16.30;;;;;;5077166;28;20274;-73
2022/03/30 11:13:04;;;;;;;17.07;9.97;;;11.10;27.30;;;;;;5074815;28;20206;-70
2022/03/30 11:15:52;;;;;;;14.70;9.17;;;11.20;35.40;;;;;;5078512;28;20229;-70
2022/03/30 11:18:21;;;;;;;19.77;11.13;;;11.20;44.40;;;;;;5086387;28;20216;-71
2022/03/30 11:21:17;;;;;;;18.50;10.40;;;11.20;30.40;;;;;;5084089;28;20676;-71
2022/03/30 11:24:10;;;;;;;16.40;11.00;;;11.20;52.20;;;;;;5083408;28;20201;-71
2022/03/30 11:27:22;;;;;;;16.87;9.47;;;11.20;48.20;;;;;;5077180;28;20293;-71
2022/03/30 11:30:10;;;;;;;18.43;10.77;;;11.20;52.40;;;;;;5086272;28;20213;-72
2022/03/30 11:32:43;;;;;;;14.60;9.73;;;11.00;58.30;;;;;;5078741;28;20250;-71
2022/03/30 11:35:12;;;;;;;16.20;11.30;;;11.00;57.60;;;;;;5088672;28;20274;-71
2022/03/30 11:37:41;;;;;;;13.70;10.03;;;11.10;62.50;;;;;;5080322;28;20669;-71
2022/03/30 11:40:10;;;;;;;16.63;10.97;;;11.10;76.00;;;;;;5077674;28;20205;-72
2022/03/30 11:42:40;;;;;;;22.93;12.23;;;11.20;53.40;;;;;;5084620;28;20206;-70
2022/03/30 11:45:20;;;;;;;17.87;10.53;;;11.30;63.50;;;;;;5090128;28;20212;-70
2022/03/30 11:47:49;;;;;;;16.10;10.37;;;11.50;35.30;;;;;;5085211;28;20703;-70
2022/03/30 11:50:20;;;;;;;17.10;11.20;;;11.50;34.00;;;;;;5084282;28;20734;-71
2022/03/30 11:52:54;;;;;;;16.37;11.23;;;11.60;27.40;;;;;;5084956;28;20225;-70
2022/03/30 11:55:22;;;;;;;16.10;10.00;;;11.60;26.50;;;;;;5090120;28;20259;-70
2022/03/30 11:57:52;;;;;;;15.87;10.33;;;11.50;21.80;;;;;;5085679;28;20744;-70
2022/03/30 12:00:27;;;;;;;14.33;10.10;;;11.50;26.40;;;;;;5080293;28;20239;-71
2022/03/30 12:02:57;;;;;;;20.93;12.93;;;11.50;16.60;;;;;;5078876;28;20201;-69
2022/03/30 12:05:25;;;;;;;16.17;10.50;;;11.50;25.30;;;;;;5084388;28;20209;-72
2022/03/30 12:07:54;;;;;;;14.20;9.40;;;11.50;27.20;;;;;;5074001;28;20254;-71
2022/03/30 12:10:29;;;;;;;18.27;10.17;;;11.30;47.60;;;;;;5078330;28;20252;-71
2022/03/30 12:12:57;;;;;;;15.17;9.83;;;11.20;73.10;;;;;;5085204;28;20684;-72
2022/03/30 12:15:26;;;;;;;14.53;10.73;;;11.30;79.90;;;;;;5087571;28;20262;-71
2022/03/30 12:17:55;;;;;;;14.70;10.57;;;11.30;76.30;;;;;;5071972;28;20231;-70
2022/03/30 12:20:28;;;;;;;20.33;11.67;;;11.40;86.10;;;;;;5070856;28;20202;-70
2022/03/30 12:23:00;;;;;;;15.20;9.90;;;11.30;75.80;;;;;;5070305;28;20202;-71
2022/03/30 12:25:29;;;;;;;19.03;11.47;;;11.20;79.40;;;;;;5070155;28;20251;-71
2022/03/30 12:27:57;;;;;;;11.63;9.83;;;11.40;99.90;;;;;;5070456;28;20202;-70
2022/03/30 12:30:28;;;;;;;19.03;10.93;;;11.50;99.90;;;;;;5070191;28;20231;-72
2022/03/30 12:32:55;;;;;;;15.57;11.47;;;11.70;63.70;;;;;;5070550;28;20209;-70
2022/03/30 12:35:24;;;;;;;16.37;11.97;;;11.70;50.80;;;;;;5070682;28;20205;-72
2022/03/30 12:38:03;;;;;;;15.47;10.20;;;11.80;27.50;;;;;;5069982;28;20621;-71
2022/03/30 12:40:35;;;;;;;19.07;11.27;;;11.90;39.70;;;;;;5069295;28;20206;-71
2022/03/30 12:43:03;;;;;;;19.92;11.77;;;11.90;34.00;;;;;;5070516;28;20214;-70
2022/03/30 12:45:32;;;;;;;13.20;9.63;;;11.80;27.00;;;;;;5070832;28;20267;-72
2022/03/30 12:48:02;;;;;;;15.70;10.43;;;11.80;52.80;;;;;;5070770;28;20198;-71
2022/03/30 12:50:33;;;;;;;22.90;11.67;;;11.70;27.60;;;;;;5080848;28;20216;-70
2022/03/30 12:53:06;;;;;;;18.03;10.50;;;11.60;28.80;;;;;;5090818;28;20213;-70
2022/03/30 12:55:36;;;;;;;18.87;10.70;;;11.70;52.50;;;;;;5090237;28;20207;-70
2022/03/30 12:58:08;;;;;;;16.90;10.93;;;11.90;39.30;;;;;;5090574;28;20209;-71
2022/03/30 13:00:39;;;;;;;16.33;9.77;;;12.10;27.50;;;;;;5090247;28;20208;-72
2022/03/30 13:03:09;;;;;;;21.13;10.70;;;12.20;5.50;;;;;;5090258;28;20213;-71